sensor_id;sensor_type;location;lat;lon;timestamp;temperature;humidity
62476;DHT22;50739;45.670;11.936;2023-05-02T00:03:56;14.25;90.04
62476;DHT22;50739;45.670;11.936;2023-05-02T00:08:59;14.19;90.59
62476;DHT22;50739;45.670;11.936;2023-05-02T00:14:01;14.02;91.19
62476;DHT22;50739;45.670;11.936;2023-05-02T00:19:03;14.02;91.67
62476;DHT22;50739;45.670;11.936;2023-05-02T00:24:06;14.09;91.41
62476;DHT22;50739;45.670;11.936;2023-05-02T00:29:08;14.05;91.64
62476;DHT22;50739;45.670;11.936;2023-05-02T00:34:10;14.20;90.51
62476;DHT22;50739;45.670;11.936;2023-05-02T00:39:13;14.23;90.63
62476;DHT22;50739;45.670;11.936;2023-05-02T00:44:14;14.22;90.62
62476;DHT22;50739;45.670;11.936;2023-05-02T00:49:16;14.13;90.95
62476;DHT22;50739;45.670;11.936;2023-05-02T00:54:19;14.23;91.11
62476;DHT22;50739;45.670;11.936;2023-05-02T00:59:21;14.26;90.50
62476;DHT22;50739;45.670;11.936;2023-05-02T01:04:30;14.09;91.02
62476;DHT22;50739;45.670;11.936;2023-05-02T01:09:44;14.05;90.99
62476;DHT22;50739;45.670;11.936;2023-05-02T01:14:52;14.20;90.68
62476;DHT22;50739;45.670;11.936;2023-05-02T01:19:57;14.06;91.13
62476;DHT22;50739;45.670;11.936;2023-05-02T01:25:07;13.89;92.12
62476;DHT22;50739;45.670;11.936;2023-05-02T01:30:16;13.98;92.17
62476;DHT22;50739;45.670;11.936;2023-05-02T01:35:20;14.19;91.19
62476;DHT22;50739;45.670;11.936;2023-05-02T01:40:23;14.16;91.41
62476;DHT22;50739;45.670;11.936;2023-05-02T01:45:27;14.01;92.06
62476;DHT22;50739;45.670;11.936;2023-05-02T01:50:30;13.94;92.20
62476;DHT22;50739;45.670;11.936;2023-05-02T01:55:35;14.05;92.32
62476;DHT22;50739;45.670;11.936;2023-05-02T02:00:40;14.10;91.98
62476;DHT22;50739;45.670;11.936;2023-05-02T02:05:46;14.10;91.60
62476;DHT22;50739;45.670;11.936;2023-05-02T02:10:52;14.12;90.75
62476;DHT22;50739;45.670;11.936;2023-05-02T02:15:58;14.13;90.85
62476;DHT22;50739;45.670;11.936;2023-05-02T02:21:01;14.02;91.07
62476;DHT22;50739;45.670;11.936;2023-05-02T02:26:05;13.88;91.69
62476;DHT22;50739;45.670;11.936;2023-05-02T02:31:10;13.91;91.91
62476;DHT22;50739;45.670;11.936;2023-05-02T02:36:16;13.91;91.57
62476;DHT22;50739;45.670;11.936;2023-05-02T02:41:22;13.95;91.36
62476;DHT22;50739;45.670;11.936;2023-05-02T02:46:45;13.82;91.69
62476;DHT22;50739;45.670;11.936;2023-05-02T02:51:53;13.92;92.13
62476;DHT22;50739;45.670;11.936;2023-05-02T02:57:00;13.81;92.04
62476;DHT22;50739;45.670;11.936;2023-05-02T03:02:07;13.88;92.14
62476;DHT22;50739;45.670;11.936;2023-05-02T03:07:09;13.78;92.40
62476;DHT22;50739;45.670;11.936;2023-05-02T03:12:11;13.72;92.74
62476;DHT22;50739;45.670;11.936;2023-05-02T03:17:15;13.68;92.15
62476;DHT22;50739;45.670;11.936;2023-05-02T03:22:16;13.95;92.28
62476;DHT22;50739;45.670;11.936;2023-05-02T03:27:18;13.94;92.03
62476;DHT22;50739;45.670;11.936;2023-05-02T03:32:21;13.89;91.36
62476;DHT22;50739;45.670;11.936;2023-05-02T03:37:23;13.94;92.27
62476;DHT22;50739;45.670;11.936;2023-05-02T03:42:25;13.92;92.11
62476;DHT22;50739;45.670;11.936;2023-05-02T03:47:28;14.01;91.99
62476;DHT22;50739;45.670;11.936;2023-05-02T03:52:30;14.01;91.20
62476;DHT22;50739;45.670;11.936;2023-05-02T03:57:32;14.01;90.92
62476;DHT22;50739;45.670;11.936;2023-05-02T04:02:35;14.06;90.39
62476;DHT22;50739;45.670;11.936;2023-05-02T04:07:37;14.06;89.60
62476;DHT22;50739;45.670;11.936;2023-05-02T04:12:39;14.05;89.79
62476;DHT22;50739;45.670;11.936;2023-05-02T04:17:42;14.08;89.60
62476;DHT22;50739;45.670;11.936;2023-05-02T04:22:43;14.13;89.32
62476;DHT22;50739;45.670;11.936;2023-05-02T04:27:47;14.20;89.09
62476;DHT22;50739;45.670;11.936;2023-05-02T04:32:50;14.20;89.11
62476;DHT22;50739;45.670;11.936;2023-05-02T04:37:52;14.18;89.32
62476;DHT22;50739;45.670;11.936;2023-05-02T04:42:54;14.16;89.32
62476;DHT22;50739;45.670;11.936;2023-05-02T04:47:57;14.06;89.31
62476;DHT22;50739;45.670;11.936;2023-05-02T04:52:59;14.13;88.75
62476;DHT22;50739;45.670;11.936;2023-05-02T04:58:00;14.32;88.68
62476;DHT22;50739;45.670;11.936;2023-05-02T05:03:04;14.23;89.17
62476;DHT22;50739;45.670;11.936;2023-05-02T05:08:07;14.27;88.35
62476;DHT22;50739;45.670;11.936;2023-05-02T05:13:08;14.19;89.12
62476;DHT22;50739;45.670;11.936;2023-05-02T05:18:13;14.16;88.94
62476;DHT22;50739;45.670;11.936;2023-05-02T05:23:15;14.29;88.79
62476;DHT22;50739;45.670;11.936;2023-05-02T05:28:16;14.30;88.73
62476;DHT22;50739;45.670;11.936;2023-05-02T05:33:20;14.33;89.35
62476;DHT22;50739;45.670;11.936;2023-05-02T05:38:22;14.23;89.34
62476;DHT22;50739;45.670;11.936;2023-05-02T05:43:24;14.22;89.14
62476;DHT22;50739;45.670;11.936;2023-05-02T05:48:27;14.25;89.87
62476;DHT22;50739;45.670;11.936;2023-05-02T05:53:29;14.22;89.90
62476;DHT22;50739;45.670;11.936;2023-05-02T05:58:31;14.26;89.57
62476;DHT22;50739;45.670;11.936;2023-05-02T06:03:34;14.25;90.04
62476;DHT22;50739;45.670;11.936;2023-05-02T06:08:36;14.32;88.74
62476;DHT22;50739;45.670;11.936;2023-05-02T06:13:38;14.34;89.14
62476;DHT22;50739;45.670;11.936;2023-05-02T06:18:41;14.22;89.50
62476;DHT22;50739;45.670;11.936;2023-05-02T06:23:43;14.32;89.30
62476;DHT22;50739;45.670;11.936;2023-05-02T06:28:45;14.34;89.33
62476;DHT22;50739;45.670;11.936;2023-05-02T06:33:48;14.39;89.36
62476;DHT22;50739;45.670;11.936;2023-05-02T06:38:50;14.37;89.72
62476;DHT22;50739;45.670;11.936;2023-05-02T06:43:52;14.44;89.16
62476;DHT22;50739;45.670;11.936;2023-05-02T06:48:55;14.50;89.14
62476;DHT22;50739;45.670;11.936;2023-05-02T06:53:57;14.41;89.49
62476;DHT22;50739;45.670;11.936;2023-05-02T06:58:59;14.46;88.92
62476;DHT22;50739;45.670;11.936;2023-05-02T07:04:02;14.36;90.06
62476;DHT22;50739;45.670;11.936;2023-05-02T07:09:05;14.34;89.79
62476;DHT22;50739;45.670;11.936;2023-05-02T07:14:07;14.40;89.94
62476;DHT22;50739;45.670;11.936;2023-05-02T07:19:10;14.44;90.32
62476;DHT22;50739;45.670;11.936;2023-05-02T07:24:12;14.41;90.25
62476;DHT22;50739;45.670;11.936;2023-05-02T07:29:13;14.32;91.24
62476;DHT22;50739;45.670;11.936;2023-05-02T07:34:16;14.54;89.69
62476;DHT22;50739;45.670;11.936;2023-05-02T07:39:18;14.46;89.48
62476;DHT22;50739;45.670;11.936;2023-05-02T07:44:20;14.57;89.25
62476;DHT22;50739;45.670;11.936;2023-05-02T07:49:23;14.56;90.03
62476;DHT22;50739;45.670;11.936;2023-05-02T07:54:25;14.57;89.28
62476;DHT22;50739;45.670;11.936;2023-05-02T07:59:28;14.71;89.29
62476;DHT22;50739;45.670;11.936;2023-05-02T08:04:31;14.78;89.02
62476;DHT22;50739;45.670;11.936;2023-05-02T08:09:33;14.80;89.29
62476;DHT22;50739;45.670;11.936;2023-05-02T08:14:35;14.68;89.85
62476;DHT22;50739;45.670;11.936;2023-05-02T08:19:38;14.77;91.26
62476;DHT22;50739;45.670;11.936;2023-05-02T08:24:40;14.81;89.46
62476;DHT22;50739;45.670;11.936;2023-05-02T08:29:42;14.92;90.60
62476;DHT22;50739;45.670;11.936;2023-05-02T08:34:45;14.92;90.35
62476;DHT22;50739;45.670;11.936;2023-05-02T08:39:46;14.99;90.23
62476;DHT22;50739;45.670;11.936;2023-05-02T08:44:48;15.09;90.04
62476;DHT22;50739;45.670;11.936;2023-05-02T08:49:52;15.12;89.34
62476;DHT22;50739;45.670;11.936;2023-05-02T08:54:55;15.13;90.76
62476;DHT22;50739;45.670;11.936;2023-05-02T08:59:58;15.19;89.84
62476;DHT22;50739;45.670;11.936;2023-05-02T09:05:05;15.21;90.07
62476;DHT22;50739;45.670;11.936;2023-05-02T09:10:08;15.18;90.38
62476;DHT22;50739;45.670;11.936;2023-05-02T09:15:11;15.26;91.14
62476;DHT22;50739;45.670;11.936;2023-05-02T09:20:15;15.47;90.28
62476;DHT22;50739;45.670;11.936;2023-05-02T09:25:18;15.53;90.37
62476;DHT22;50739;45.670;11.936;2023-05-02T09:30:22;15.66;90.22
62476;DHT22;50739;45.670;11.936;2023-05-02T09:35:25;15.73;89.44
62476;DHT22;50739;45.670;11.936;2023-05-02T09:40:27;15.74;89.97
62476;DHT22;50739;45.670;11.936;2023-05-02T09:45:30;15.76;88.81
62476;DHT22;50739;45.670;11.936;2023-05-02T09:50:34;15.83;88.59
62476;DHT22;50739;45.670;11.936;2023-05-02T09:55:36;15.90;89.04
62476;DHT22;50739;45.670;11.936;2023-05-02T10:00:43;15.91;89.44
62476;DHT22;50739;45.670;11.936;2023-05-02T10:05:46;15.86;89.51
62476;DHT22;50739;45.670;11.936;2023-05-02T10:10:53;15.98;88.83
62476;DHT22;50739;45.670;11.936;2023-05-02T10:15:58;16.16;89.06
62476;DHT22;50739;45.670;11.936;2023-05-02T10:21:05;16.28;89.17
62476;DHT22;50739;45.670;11.936;2023-05-02T10:26:09;16.32;87.46
62476;DHT22;50739;45.670;11.936;2023-05-02T10:31:14;16.41;87.34
62476;DHT22;50739;45.670;11.936;2023-05-02T10:36:20;16.43;85.72
62476;DHT22;50739;45.670;11.936;2023-05-02T10:41:24;16.48;86.18
62476;DHT22;50739;45.670;11.936;2023-05-02T10:46:31;16.57;84.90
62476;DHT22;50739;45.670;11.936;2023-05-02T10:51:36;16.67;82.70
62476;DHT22;50739;45.670;11.936;2023-05-02T10:57:06;16.73;83.04
62476;DHT22;50739;45.670;11.936;2023-05-02T11:13:47;16.92;84.14
62476;DHT22;50739;45.670;11.936;2023-05-02T11:18:59;16.94;83.41
62476;DHT22;50739;45.670;11.936;2023-05-02T11:29:53;17.15;80.55
62476;DHT22;50739;45.670;11.936;2023-05-02T11:34:55;17.21;80.14
62476;DHT22;50739;45.670;11.936;2023-05-02T11:40:09;17.24;82.87
62476;DHT22;50739;45.670;11.936;2023-05-02T11:45:12;17.28;81.69
62476;DHT22;50739;45.670;11.936;2023-05-02T11:50:15;17.29;81.08
62476;DHT22;50739;45.670;11.936;2023-05-02T11:55:17;17.25;80.11
62476;DHT22;50739;45.670;11.936;2023-05-02T12:00:26;17.19;81.10
62476;DHT22;50739;45.670;11.936;2023-05-02T12:05:28;17.15;81.65
62476;DHT22;50739;45.670;11.936;2023-05-02T12:10:36;17.15;81.29
62476;DHT22;50739;45.670;11.936;2023-05-02T12:15:40;17.17;80.69
62476;DHT22;50739;45.670;11.936;2023-05-02T12:20:42;17.26;80.60
62476;DHT22;50739;45.670;11.936;2023-05-02T12:25:44;17.17;81.71
62476;DHT22;50739;45.670;11.936;2023-05-02T12:30:50;17.14;81.16
62476;DHT22;50739;45.670;11.936;2023-05-02T12:36:05;17.17;79.47
62476;DHT22;50739;45.670;11.936;2023-05-02T12:41:07;17.19;78.04
62476;DHT22;50739;45.670;11.936;2023-05-02T12:46:10;17.28;77.96
62476;DHT22;50739;45.670;11.936;2023-05-02T12:51:22;17.25;77.56
62476;DHT22;50739;45.670;11.936;2023-05-02T12:56:24;17.21;77.50
62476;DHT22;50739;45.670;11.936;2023-05-02T13:01:28;17.06;79.43
62476;DHT22;50739;45.670;11.936;2023-05-02T13:06:30;17.11;78.79
62476;DHT22;50739;45.670;11.936;2023-05-02T13:11:32;17.10;80.31
62476;DHT22;50739;45.670;11.936;2023-05-02T13:16:35;17.08;79.96
62476;DHT22;50739;45.670;11.936;2023-05-02T13:21:37;17.03;82.40
62476;DHT22;50739;45.670;11.936;2023-05-02T13:26:39;17.10;80.05
62476;DHT22;50739;45.670;11.936;2023-05-02T13:31:42;17.01;80.93
62476;DHT22;50739;45.670;11.936;2023-05-02T13:36:44;17.04;82.28
62476;DHT22;50739;45.670;11.936;2023-05-02T13:41:46;16.95;81.63
62476;DHT22;50739;45.670;11.936;2023-05-02T13:46:49;16.90;81.55
62476;DHT22;50739;45.670;11.936;2023-05-02T13:51:51;16.79;81.93
62476;DHT22;50739;45.670;11.936;2023-05-02T13:56:53;16.81;81.82
62476;DHT22;50739;45.670;11.936;2023-05-02T14:01:56;16.60;83.70
62476;DHT22;50739;45.670;11.936;2023-05-02T14:06:58;16.64;83.97
62476;DHT22;50739;45.670;11.936;2023-05-02T14:12:00;16.71;83.60
62476;DHT22;50739;45.670;11.936;2023-05-02T14:17:03;16.48;83.76
62476;DHT22;50739;45.670;11.936;2023-05-02T14:22:05;16.62;83.48
62476;DHT22;50739;45.670;11.936;2023-05-02T14:27:07;16.62;83.12
62476;DHT22;50739;45.670;11.936;2023-05-02T14:32:18;16.55;83.59
62476;DHT22;50739;45.670;11.936;2023-05-02T14:37:21;16.57;83.56
62476;DHT22;50739;45.670;11.936;2023-05-02T14:42:23;16.53;84.19
62476;DHT22;50739;45.670;11.936;2023-05-02T14:47:26;16.52;84.73
62476;DHT22;50739;45.670;11.936;2023-05-02T14:52:29;16.45;84.89
62476;DHT22;50739;45.670;11.936;2023-05-02T14:57:31;16.48;85.51
62476;DHT22;50739;45.670;11.936;2023-05-02T15:02:35;16.53;85.52
62476;DHT22;50739;45.670;11.936;2023-05-02T15:07:37;16.53;85.97
62476;DHT22;50739;45.670;11.936;2023-05-02T15:12:38;16.42;86.68
62476;DHT22;50739;45.670;11.936;2023-05-02T15:17:44;16.43;85.59
62476;DHT22;50739;45.670;11.936;2023-05-02T15:22:45;16.33;85.42
62476;DHT22;50739;45.670;11.936;2023-05-02T15:27:47;16.39;85.16
62476;DHT22;50739;45.670;11.936;2023-05-02T15:32:51;16.42;85.00
62476;DHT22;50739;45.670;11.936;2023-05-02T15:37:54;16.38;85.88
62476;DHT22;50739;45.670;11.936;2023-05-02T15:42:55;16.33;85.96
62476;DHT22;50739;45.670;11.936;2023-05-02T15:47:59;16.29;84.77
62476;DHT22;50739;45.670;11.936;2023-05-02T15:53:00;16.28;84.84
62476;DHT22;50739;45.670;11.936;2023-05-02T15:58:02;16.32;84.82
62476;DHT22;50739;45.670;11.936;2023-05-02T16:03:06;16.29;85.35
62476;DHT22;50739;45.670;11.936;2023-05-02T16:08:08;16.30;84.49
62476;DHT22;50739;45.670;11.936;2023-05-02T16:13:10;16.42;83.81
62476;DHT22;50739;45.670;11.936;2023-05-02T16:18:13;16.48;83.59
62476;DHT22;50739;45.670;11.936;2023-05-02T16:23:15;16.49;84.48
62476;DHT22;50739;45.670;11.936;2023-05-02T16:28:17;16.56;83.71
62476;DHT22;50739;45.670;11.936;2023-05-02T16:33:20;16.42;85.81
62476;DHT22;50739;45.670;11.936;2023-05-02T16:38:22;16.46;85.81
62476;DHT22;50739;45.670;11.936;2023-05-02T16:43:24;16.26;86.81
62476;DHT22;50739;45.670;11.936;2023-05-02T16:48:27;16.33;86.49
62476;DHT22;50739;45.670;11.936;2023-05-02T16:53:29;16.30;86.97
62476;DHT22;50739;45.670;11.936;2023-05-02T16:58:31;16.29;86.79
62476;DHT22;50739;45.670;11.936;2023-05-02T17:03:34;16.23;87.21
62476;DHT22;50739;45.670;11.936;2023-05-02T17:08:38;16.26;87.25
62476;DHT22;50739;45.670;11.936;2023-05-02T17:13:40;16.25;87.45
62476;DHT22;50739;45.670;11.936;2023-05-02T17:18:44;16.33;86.96
62476;DHT22;50739;45.670;11.936;2023-05-02T17:23:46;16.26;87.55
62476;DHT22;50739;45.670;11.936;2023-05-02T17:28:48;16.26;87.59
62476;DHT22;50739;45.670;11.936;2023-05-02T17:33:54;16.26;87.19
62476;DHT22;50739;45.670;11.936;2023-05-02T17:38:55;16.35;86.70
62476;DHT22;50739;45.670;11.936;2023-05-02T17:43:58;16.29;86.65
62476;DHT22;50739;45.670;11.936;2023-05-02T17:49:01;16.26;86.42
62476;DHT22;50739;45.670;11.936;2023-05-02T17:54:03;16.18;86.27
62476;DHT22;50739;45.670;11.936;2023-05-02T17:59:09;16.18;85.63
62476;DHT22;50739;45.670;11.936;2023-05-02T18:04:12;16.09;85.33
62476;DHT22;50739;45.670;11.936;2023-05-02T18:09:14;16.09;85.40
62476;DHT22;50739;45.670;11.936;2023-05-02T18:14:16;16.01;85.83
62476;DHT22;50739;45.670;11.936;2023-05-02T18:19:20;15.97;86.54
62476;DHT22;50739;45.670;11.936;2023-05-02T18:24:22;15.91;87.65
62476;DHT22;50739;45.670;11.936;2023-05-02T18:29:24;15.71;88.44
62476;DHT22;50739;45.670;11.936;2023-05-02T18:34:31;15.76;88.88
62476;DHT22;50739;45.670;11.936;2023-05-02T18:39:34;15.78;87.65
62476;DHT22;50739;45.670;11.936;2023-05-02T18:44:36;15.61;89.73
62476;DHT22;50739;45.670;11.936;2023-05-02T18:49:39;15.61;89.44
62476;DHT22;50739;45.670;11.936;2023-05-02T18:54:41;15.67;91.26
62476;DHT22;50739;45.670;11.936;2023-05-02T18:59:43;15.67;91.42
62476;DHT22;50739;45.670;11.936;2023-05-02T19:04:46;15.64;91.88
62476;DHT22;50739;45.670;11.936;2023-05-02T19:09:48;15.59;92.33
62476;DHT22;50739;45.670;11.936;2023-05-02T19:14:50;15.61;92.77
62476;DHT22;50739;45.670;11.936;2023-05-02T19:19:53;15.53;92.00
62476;DHT22;50739;45.670;11.936;2023-05-02T19:24:55;15.54;92.33
62476;DHT22;50739;45.670;11.936;2023-05-02T19:29:57;15.54;92.86
62476;DHT22;50739;45.670;11.936;2023-05-02T19:35:01;15.54;93.29
62476;DHT22;50739;45.670;11.936;2023-05-02T19:40:04;15.51;93.44
62476;DHT22;50739;45.670;11.936;2023-05-02T19:45:07;15.51;93.04
62476;DHT22;50739;45.670;11.936;2023-05-02T19:50:10;15.44;92.60
62476;DHT22;50739;45.670;11.936;2023-05-02T19:55:12;15.42;93.15
62476;DHT22;50739;45.670;11.936;2023-05-02T20:00:15;15.47;92.68
62476;DHT22;50739;45.670;11.936;2023-05-02T20:05:19;15.43;92.65
62476;DHT22;50739;45.670;11.936;2023-05-02T20:10:21;15.43;92.77
62476;DHT22;50739;45.670;11.936;2023-05-02T20:15:23;15.47;92.60
62476;DHT22;50739;45.670;11.936;2023-05-02T20:20:26;15.42;93.11
62476;DHT22;50739;45.670;11.936;2023-05-02T20:25:28;15.38;93.46
62476;DHT22;50739;45.670;11.936;2023-05-02T20:30:30;15.36;93.64
62476;DHT22;50739;45.670;11.936;2023-05-02T20:35:34;15.36;93.16
62476;DHT22;50739;45.670;11.936;2023-05-02T20:40:38;15.38;93.62
62476;DHT22;50739;45.670;11.936;2023-05-02T20:45:41;15.28;93.55
62476;DHT22;50739;45.670;11.936;2023-05-02T20:50:52;15.23;93.90
62476;DHT22;50739;45.670;11.936;2023-05-02T20:55:54;15.21;93.23
62476;DHT22;50739;45.670;11.936;2023-05-02T21:00:56;15.22;93.21
62476;DHT22;50739;45.670;11.936;2023-05-02T21:05:59;15.21;93.52
62476;DHT22;50739;45.670;11.936;2023-05-02T21:11:01;15.22;93.57
62476;DHT22;50739;45.670;11.936;2023-05-02T21:16:03;15.22;93.79
62476;DHT22;50739;45.670;11.936;2023-05-02T21:21:06;15.21;93.84
62476;DHT22;50739;45.670;11.936;2023-05-02T21:26:08;15.18;93.79
62476;DHT22;50739;45.670;11.936;2023-05-02T21:31:10;15.19;94.37
62476;DHT22;50739;45.670;11.936;2023-05-02T21:36:13;15.16;94.47
62476;DHT22;50739;45.670;11.936;2023-05-02T21:41:15;15.13;93.99
62476;DHT22;50739;45.670;11.936;2023-05-02T21:46:16;15.15;92.92
62476;DHT22;50739;45.670;11.936;2023-05-02T21:51:20;15.11;92.97
62476;DHT22;50739;45.670;11.936;2023-05-02T21:56:21;15.09;93.53
62476;DHT22;50739;45.670;11.936;2023-05-02T22:01:23;15.13;93.04
62476;DHT22;50739;45.670;11.936;2023-05-02T22:06:27;15.11;93.24
62476;DHT22;50739;45.670;11.936;2023-05-02T22:11:29;15.13;93.09
62476;DHT22;50739;45.670;11.936;2023-05-02T22:16:34;15.13;93.37
62476;DHT22;50739;45.670;11.936;2023-05-02T22:21:38;15.15;93.45
62476;DHT22;50739;45.670;11.936;2023-05-02T22:26:39;15.15;93.29
62476;DHT22;50739;45.670;11.936;2023-05-02T22:31:41;15.13;93.64
62476;DHT22;50739;45.670;11.936;2023-05-02T22:36:44;15.06;93.47
62476;DHT22;50739;45.670;11.936;2023-05-02T22:41:46;15.05;93.48
62476;DHT22;50739;45.670;11.936;2023-05-02T22:46:48;15.02;94.43
62476;DHT22;50739;45.670;11.936;2023-05-02T22:51:51;15.05;94.79
62476;DHT22;50739;45.670;11.936;2023-05-02T22:56:57;14.98;93.74
62476;DHT22;50739;45.670;11.936;2023-05-02T23:01:59;14.99;93.53
62476;DHT22;50739;45.670;11.936;2023-05-02T23:07:02;14.99;93.88
62476;DHT22;50739;45.670;11.936;2023-05-02T23:12:04;14.98;93.79
62476;DHT22;50739;45.670;11.936;2023-05-02T23:17:06;14.96;93.07
62476;DHT22;50739;45.670;11.936;2023-05-02T23:22:09;14.95;93.17
62476;DHT22;50739;45.670;11.936;2023-05-02T23:27:11;14.95;92.59
62476;DHT22;50739;45.670;11.936;2023-05-02T23:32:12;14.94;92.76
62476;DHT22;50739;45.670;11.936;2023-05-02T23:37:15;14.95;92.13
62476;DHT22;50739;45.670;11.936;2023-05-02T23:42:17;14.99;91.48
62476;DHT22;50739;45.670;11.936;2023-05-02T23:47:19;14.92;91.17
62476;DHT22;50739;45.670;11.936;2023-05-02T23:52:23;14.91;91.14
62476;DHT22;50739;45.670;11.936;2023-05-02T23:57:25;14.95;90.76
